createdAt,value
2023-03-06T00:00:50.398Z,6.63
2023-03-06T00:03:20.902Z,8.90
2023-03-06T00:05:51.500Z,12.00
2023-03-06T00:08:21.819Z,14.70
2023-03-06T00:10:52.144Z,11.52
2023-03-06T00:13:26.842Z,13.20
2023-03-06T00:16:02.639Z,10.80
2023-03-06T00:18:36.372Z,9.48
2023-03-06T00:21:10.470Z,13.90
2023-03-06T00:23:41.440Z,10.23
2023-03-06T00:26:12.478Z,11.77
2023-03-06T00:28:43.073Z,9.02
2023-03-06T00:31:16.341Z,10.18
2023-03-06T00:33:46.499Z,10.48
2023-03-06T00:36:16.613Z,14.13
2023-03-06T00:38:46.754Z,11.15
2023-03-06T00:41:18.211Z,12.52
2023-03-06T00:43:48.402Z,11.68
2023-03-06T00:46:21.128Z,9.52
2023-03-06T00:48:51.755Z,9.10
2023-03-06T00:51:25.004Z,11.52
2023-03-06T00:53:55.296Z,8.98
2023-03-06T00:56:27.759Z,8.38
2023-03-06T00:58:57.877Z,14.00
2023-03-06T01:01:30.639Z,13.23
2023-03-06T01:04:00.947Z,10.40
2023-03-06T01:06:31.223Z,10.90
2023-03-06T01:09:04.554Z,9.70
2023-03-06T01:11:37.618Z,10.73
2023-03-06T01:14:08.353Z,11.25
2023-03-06T01:16:41.249Z,13.88
2023-03-06T01:19:13.006Z,13.05
2023-03-06T01:21:43.257Z,12.07
2023-03-06T01:24:13.355Z,11.93
2023-03-06T01:26:43.516Z,12.48
2023-03-06T01:29:14.158Z,11.10
2023-03-06T01:31:46.975Z,13.57
2023-03-06T01:34:17.582Z,16.15
2023-03-06T01:36:47.847Z,12.45
2023-03-06T01:39:18.824Z,12.77
2023-03-06T01:41:49.026Z,11.77
2023-03-06T01:44:19.183Z,11.95
2023-03-06T01:46:51.967Z,11.80
2023-03-06T01:49:25.424Z,10.55
2023-03-06T01:51:58.512Z,12.60
2023-03-06T01:54:31.381Z,9.97
2023-03-06T01:57:07.170Z,13.85
2023-03-06T01:59:39.670Z,14.15
2023-03-06T02:02:14.924Z,10.73
2023-03-06T02:04:45.247Z,12.80
2023-03-06T02:07:17.156Z,10.75
2023-03-06T02:09:50.490Z,8.80
2023-03-06T02:12:22.673Z,9.82
2023-03-06T02:14:57.371Z,10.20
2023-03-06T02:17:33.131Z,8.65
2023-03-06T02:20:10.824Z,10.30
2023-03-06T02:22:48.931Z,9.85
2023-03-06T02:25:38.834Z,7.55
2023-03-06T02:28:11.802Z,7.63
2023-03-06T02:30:43.438Z,7.88
2023-03-06T02:33:15.032Z,6.50
2023-03-06T02:35:52.512Z,7.13
2023-03-06T02:38:25.771Z,6.50
2023-03-06T02:40:59.824Z,6.75
2023-03-06T02:43:34.567Z,6.55
2023-03-06T02:46:06.938Z,7.75
2023-03-06T02:48:37.126Z,9.38
2023-03-06T02:51:07.580Z,9.25
2023-03-06T02:53:40.589Z,9.30
2023-03-06T02:56:13.546Z,9.95
2023-03-06T02:58:44.394Z,6.45
2023-03-06T03:01:15.044Z,10.02
2023-03-06T03:03:45.186Z,6.20
2023-03-06T03:06:15.447Z,10.63
2023-03-06T03:08:45.657Z,10.25
2023-03-06T03:11:18.326Z,15.00
2023-03-06T03:13:48.587Z,8.85
2023-03-06T03:16:18.948Z,9.73
2023-03-06T03:18:51.172Z,15.60
2023-03-06T03:21:22.043Z,11.13
2023-03-06T03:23:52.399Z,7.40
2023-03-06T03:26:25.567Z,7.18
2023-03-06T03:28:58.480Z,9.83
2023-03-06T03:31:28.838Z,8.43
2023-03-06T03:34:01.718Z,10.50
2023-03-06T03:36:32.031Z,6.80
2023-03-06T03:39:02.169Z,8.10
2023-03-06T03:41:37.456Z,7.13
2023-03-06T03:44:07.796Z,8.70
2023-03-06T03:46:38.028Z,10.73
2023-03-06T03:49:09.066Z,9.32
2023-03-06T03:51:41.521Z,6.13
2023-03-06T03:54:11.782Z,7.93
2023-03-06T03:56:45.288Z,8.60
2023-03-06T03:59:15.463Z,9.55
2023-03-06T04:01:46.033Z,6.63
2023-03-06T04:04:16.883Z,6.50
2023-03-06T04:06:47.301Z,6.95
2023-03-06T04:09:17.488Z,9.45
2023-03-06T04:11:51.430Z,8.13
2023-03-06T04:14:21.884Z,6.82
2023-03-06T04:16:53.025Z,7.85
2023-03-06T04:19:26.018Z,10.18
2023-03-06T04:21:56.335Z,7.30
2023-03-06T04:24:26.426Z,7.60
2023-03-06T04:26:59.214Z,6.85
2023-03-06T04:29:29.368Z,8.98
2023-03-06T04:31:59.952Z,5.88
2023-03-06T04:34:31.256Z,7.80
2023-03-06T04:37:01.455Z,8.98
2023-03-06T04:39:31.611Z,8.65
2023-03-06T04:42:04.520Z,7.50
2023-03-06T04:44:34.738Z,7.18
2023-03-06T04:47:04.835Z,7.15
2023-03-06T04:49:35.178Z,5.57
2023-03-06T04:52:05.447Z,11.20
2023-03-06T04:54:35.894Z,6.40
2023-03-06T04:57:08.882Z,6.80
2023-03-06T04:59:39.346Z,5.50
2023-03-06T05:02:10.374Z,10.10
2023-03-06T05:04:40.821Z,10.15
2023-03-06T05:07:11.047Z,6.38
2023-03-06T05:09:41.191Z,5.70
2023-03-06T05:12:14.017Z,7.10
2023-03-06T05:14:45.643Z,7.35
2023-03-06T05:17:17.353Z,9.67
2023-03-06T05:19:47.484Z,7.85
2023-03-06T05:22:17.659Z,7.70
2023-03-06T05:24:48.012Z,7.78
2023-03-06T05:27:20.799Z,7.85
2023-03-06T05:29:51.197Z,9.85
2023-03-06T05:32:21.482Z,6.72
2023-03-06T05:34:51.664Z,6.53
2023-03-06T05:37:23.177Z,8.20
2023-03-06T05:39:54.174Z,12.15
2023-03-06T05:42:28.735Z,8.23
2023-03-06T05:44:58.973Z,6.95
2023-03-06T05:47:29.447Z,7.57
2023-03-06T05:49:59.645Z,5.80
2023-03-06T05:52:32.575Z,10.00
2023-03-06T05:55:05.693Z,11.40
2023-03-06T05:57:40.966Z,7.23
2023-03-06T06:00:15.973Z,7.10
2023-03-06T06:02:46.328Z,7.13
2023-03-06T06:05:19.327Z,8.88
2023-03-06T06:07:49.416Z,8.20
2023-03-06T06:10:19.563Z,6.78
2023-03-06T06:12:52.366Z,7.18
2023-03-06T06:15:22.569Z,8.20
2023-03-06T06:17:52.916Z,9.35
2023-03-06T06:20:23.747Z,7.30
2023-03-06T06:22:54.378Z,7.13
2023-03-06T06:25:24.584Z,6.32
2023-03-06T06:28:00.204Z,7.10
2023-03-06T06:30:31.307Z,9.15
2023-03-06T06:33:02.472Z,7.63
2023-03-06T06:35:32.694Z,8.05
2023-03-06T06:38:03.195Z,6.88
2023-03-06T06:40:33.340Z,7.22
2023-03-06T06:43:06.192Z,7.63
2023-03-06T06:45:36.332Z,7.90
2023-03-06T06:48:07.300Z,8.38
2023-03-06T06:50:37.614Z,7.38
2023-03-06T06:53:08.125Z,7.78
2023-03-06T06:55:40.675Z,9.70
2023-03-06T06:58:13.488Z,8.43
2023-03-06T07:00:43.695Z,10.02
2023-03-06T07:03:15.112Z,7.85
2023-03-06T07:05:45.648Z,6.55
2023-03-06T07:08:15.984Z,8.43
2023-03-06T07:10:46.395Z,8.75
2023-03-06T07:13:19.212Z,7.90
2023-03-06T07:15:49.608Z,8.43
2023-03-06T07:18:19.784Z,9.25
2023-03-06T07:20:49.999Z,8.07
2023-03-06T07:23:20.150Z,10.95
2023-03-06T07:25:50.598Z,12.32
2023-03-06T07:28:23.903Z,8.18
2023-03-06T07:30:54.810Z,7.55
2023-03-06T07:33:27.451Z,10.93
2023-03-06T07:35:57.745Z,10.10
2023-03-06T07:38:28.023Z,9.02
2023-03-06T07:40:58.305Z,10.00
2023-03-06T07:43:34.030Z,12.02
2023-03-06T07:46:04.262Z,9.35
2023-03-06T07:48:34.663Z,9.23
2023-03-06T07:51:07.502Z,7.82
2023-03-06T07:53:40.075Z,8.13
2023-03-06T07:56:11.989Z,9.38
2023-03-06T07:58:48.216Z,8.18
2023-03-06T08:01:20.123Z,10.02
2023-03-06T08:07:03.574Z,8.27
2023-03-06T08:09:34.248Z,9.10
2023-03-06T08:12:04.611Z,10.32
2023-03-06T08:14:37.808Z,7.70
2023-03-06T08:17:08.639Z,8.70
2023-03-06T08:19:41.388Z,8.63
2023-03-06T08:22:17.869Z,9.15
2023-03-06T08:24:50.370Z,8.50
2023-03-06T08:27:20.511Z,10.00
2023-03-06T08:29:53.299Z,7.85
2023-03-06T08:32:23.628Z,9.48
2023-03-06T08:34:53.923Z,11.70
2023-03-06T08:37:24.132Z,8.88
2023-03-06T08:39:54.320Z,10.75
2023-03-06T08:42:24.689Z,12.25
2023-03-06T08:44:59.562Z,11.48
2023-03-06T08:47:34.900Z,9.50
2023-03-06T08:50:06.644Z,11.13
2023-03-06T08:52:36.876Z,12.43
2023-03-06T08:55:07.697Z,10.40
2023-03-06T08:57:38.013Z,8.27
2023-03-06T09:00:15.250Z,11.48
2023-03-06T09:02:45.459Z,9.38
2023-03-06T09:05:18.030Z,11.35
2023-03-06T09:07:48.273Z,10.95
2023-03-06T09:10:23.385Z,9.27
2023-03-06T09:12:55.093Z,12.48
2023-03-06T09:15:29.200Z,9.48
2023-03-06T09:17:59.534Z,8.38
2023-03-06T09:20:30.957Z,8.07
2023-03-06T09:23:01.232Z,12.13
2023-03-06T09:25:31.691Z,12.40
2023-03-06T09:28:11.393Z,9.30
2023-03-06T09:30:45.806Z,10.35
2023-03-06T09:33:16.485Z,9.98
2023-03-06T09:35:52.570Z,12.48
2023-03-06T09:38:25.331Z,9.93
2023-03-06T09:41:06.219Z,9.90
2023-03-06T09:43:40.661Z,11.93
2023-03-06T09:46:22.167Z,10.05
2023-03-06T09:49:10.353Z,11.75
2023-03-06T09:51:54.578Z,10.32
2023-03-06T09:54:32.407Z,9.48
2023-03-06T09:57:02.539Z,9.85
2023-03-06T09:59:34.683Z,8.85
2023-03-06T10:02:17.039Z,11.00
2023-03-06T10:04:54.707Z,11.57
2023-03-06T10:07:31.140Z,12.35
2023-03-06T10:10:05.352Z,13.05
2023-03-06T10:12:40.852Z,12.93
2023-03-06T10:15:18.005Z,11.68
2023-03-06T10:17:51.573Z,10.90
2023-03-06T10:20:24.681Z,11.63
2023-03-06T10:23:13.004Z,11.00
2023-03-06T10:25:55.882Z,13.15
2023-03-06T10:28:35.058Z,12.50
2023-03-06T10:31:12.447Z,8.68
2023-03-06T10:33:56.915Z,11.25
2023-03-06T10:39:02.825Z,16.63
2023-03-06T10:41:36.234Z,12.20
2023-03-06T10:44:25.687Z,12.05
2023-03-06T10:46:57.190Z,11.95
2023-03-06T10:49:38.670Z,12.05
2023-03-06T10:52:23.955Z,10.32
2023-03-06T10:54:54.284Z,9.88
2023-03-06T10:57:31.199Z,8.75
2023-03-06T11:00:04.804Z,9.98
2023-03-06T11:02:37.439Z,12.52
2023-03-06T11:05:22.102Z,14.65
2023-03-06T11:07:59.737Z,11.45
2023-03-06T11:10:47.449Z,12.77
2023-03-06T11:13:25.693Z,11.45
2023-03-06T11:16:04.128Z,10.63
2023-03-06T11:18:42.189Z,11.88
2023-03-06T11:21:35.349Z,10.93
2023-03-06T11:24:08.864Z,11.98
2023-03-06T11:26:48.538Z,11.02
2023-03-06T11:29:32.423Z,12.30
2023-03-06T11:32:12.552Z,11.73
2023-03-06T11:34:50.689Z,8.93
2023-03-06T11:37:32.817Z,11.68
2023-03-06T11:40:09.503Z,10.13
2023-03-06T11:42:43.753Z,10.88
2023-03-06T11:45:29.353Z,9.13
2023-03-06T11:48:08.382Z,15.13
2023-03-06T11:50:41.954Z,9.10
2023-03-06T11:53:19.143Z,9.35
2023-03-06T11:56:00.605Z,14.13
2023-03-06T11:59:12.231Z,12.63
2023-03-06T12:01:50.604Z,10.95
2023-03-06T12:04:41.675Z,11.60
2023-03-06T12:07:23.863Z,12.52
2023-03-06T12:10:08.462Z,9.52
2023-03-06T12:13:02.076Z,9.80
2023-03-06T12:15:59.560Z,10.07
2023-03-06T12:18:38.956Z,14.27
2023-03-06T12:21:14.351Z,8.55
2023-03-06T12:24:06.021Z,11.30
2023-03-06T12:27:11.961Z,9.27
2023-03-06T12:29:58.880Z,8.25
2023-03-06T12:32:42.810Z,9.38
2023-03-06T12:35:31.638Z,11.68
2023-03-06T12:38:11.823Z,9.98
2023-03-06T12:41:13.648Z,10.35
2023-03-06T12:44:15.156Z,10.88
2023-03-06T12:46:47.871Z,10.45
2023-03-06T12:49:32.011Z,9.88
2023-03-06T12:52:21.646Z,10.15
2023-03-06T12:54:56.439Z,8.02
2023-03-06T12:57:28.127Z,8.20
2023-03-06T13:00:01.565Z,8.30
2023-03-06T13:03:02.324Z,12.98
2023-03-06T13:06:12.142Z,11.98
2023-03-06T13:09:10.228Z,13.00
2023-03-06T13:12:06.747Z,9.48
2023-03-06T13:14:56.305Z,8.60
2023-03-06T13:17:35.330Z,9.95
2023-03-06T13:20:29.700Z,11.80
2023-03-06T13:23:00.264Z,9.40
2023-03-06T13:25:53.045Z,8.85
2023-03-06T13:28:27.826Z,7.65
2023-03-06T13:30:58.898Z,8.93
2023-03-06T13:33:57.754Z,9.35
2023-03-06T13:36:31.535Z,10.85
2023-03-06T13:39:08.761Z,8.07
2023-03-06T13:42:01.117Z,9.90
2023-03-06T13:44:46.125Z,7.28
2023-03-06T13:48:02.816Z,7.07
2023-03-06T13:50:37.822Z,8.43
2023-03-06T13:53:37.635Z,7.13
2023-03-06T13:56:36.644Z,9.52
2023-03-06T13:59:25.526Z,11.98
2023-03-06T14:02:06.842Z,11.23
2023-03-06T14:04:41.252Z,9.73
2023-03-06T14:07:27.980Z,13.43
2023-03-06T14:10:06.156Z,10.05
2023-03-06T14:12:39.082Z,9.60
2023-03-06T14:15:19.275Z,11.23
2023-03-06T14:17:57.723Z,9.35
2023-03-06T14:20:38.262Z,11.20
2023-03-06T14:23:29.468Z,7.45
2023-03-06T14:26:18.785Z,14.75
2023-03-06T14:28:59.292Z,11.65
2023-03-06T14:31:34.642Z,12.70
2023-03-06T14:34:10.947Z,9.02
2023-03-06T14:36:47.408Z,14.57
2023-03-06T14:39:23.009Z,11.55
2023-03-06T14:41:55.327Z,10.45
2023-03-06T14:44:28.077Z,10.93
2023-03-06T14:47:29.270Z,13.25
2023-03-06T14:50:24.512Z,12.75
2023-03-06T14:52:58.167Z,11.38
2023-03-06T14:55:30.807Z,12.85
2023-03-06T14:58:05.363Z,8.73
2023-03-06T15:00:39.414Z,13.35
2023-03-06T15:03:19.224Z,14.40
2023-03-06T15:05:53.178Z,12.90
2023-03-06T15:08:30.595Z,13.00
2023-03-06T15:11:03.827Z,12.60
2023-03-06T15:13:35.966Z,12.90
2023-03-06T15:16:10.169Z,12.95
2023-03-06T15:18:58.240Z,9.53
2023-03-06T15:21:30.050Z,12.70
2023-03-06T15:24:00.648Z,13.57
2023-03-06T15:26:34.375Z,12.52
2023-03-06T15:29:19.999Z,14.98
2023-03-06T15:31:50.439Z,12.55
2023-03-06T15:34:27.923Z,13.77
2023-03-06T15:37:00.253Z,11.90
2023-03-06T15:39:48.660Z,11.20
2023-03-06T15:42:23.727Z,10.43
2023-03-06T15:45:05.763Z,12.20
2023-03-06T15:47:36.585Z,10.60
2023-03-06T15:50:17.323Z,9.07
2023-03-06T15:52:48.188Z,11.13
2023-03-06T15:55:21.199Z,14.18
2023-03-06T15:57:55.864Z,11.75
2023-03-06T16:00:28.971Z,10.02
2023-03-06T16:02:59.734Z,12.68
2023-03-06T16:05:33.157Z,11.75
2023-03-06T16:08:03.721Z,12.80
2023-03-06T16:10:38.939Z,8.00
2023-03-06T16:13:14.025Z,10.50
2023-03-06T16:15:51.118Z,12.82
2023-03-06T16:18:24.443Z,10.65
2023-03-06T16:20:59.661Z,15.63
2023-03-06T16:23:30.213Z,12.75
2023-03-06T16:26:00.387Z,12.95
2023-03-06T16:28:30.649Z,12.52
2023-03-06T16:31:00.847Z,11.90
2023-03-06T16:33:31.000Z,10.18
2023-03-06T16:36:03.726Z,13.30
2023-03-06T16:38:36.245Z,11.98
2023-03-06T16:41:06.995Z,11.25
2023-03-06T16:43:37.432Z,12.75
2023-03-06T16:46:10.195Z,12.88
2023-03-06T16:48:40.832Z,11.13
2023-03-06T16:51:17.754Z,11.63
2023-03-06T16:53:48.842Z,14.35
2023-03-06T16:56:21.774Z,18.88
2023-03-06T16:58:52.067Z,15.07
2023-03-06T17:01:23.060Z,14.02
2023-03-06T17:03:56.104Z,15.20
2023-03-06T17:06:28.949Z,17.30
2023-03-06T17:09:00.335Z,12.97
2023-03-06T17:11:31.045Z,15.18
2023-03-06T17:14:01.318Z,12.32
2023-03-06T17:16:31.519Z,14.88
2023-03-06T17:19:02.599Z,14.93
2023-03-06T17:21:38.637Z,16.08
2023-03-06T17:24:12.966Z,15.77
2023-03-06T17:26:44.471Z,13.55
2023-03-06T17:29:15.198Z,19.05
2023-03-06T17:31:46.231Z,23.35
2023-03-06T17:34:16.444Z,19.13
2023-03-06T17:36:49.466Z,16.77
2023-03-06T17:39:19.897Z,16.02
2023-03-06T17:41:50.069Z,14.80
2023-03-06T17:44:20.326Z,16.60
2023-03-06T17:46:51.474Z,18.05
2023-03-06T17:49:23.465Z,17.67
2023-03-06T17:51:59.908Z,19.30
2023-03-06T17:54:30.593Z,24.38
2023-03-06T17:57:03.561Z,24.77
2023-03-06T17:59:36.617Z,21.67
2023-03-06T18:02:06.969Z,35.33
2023-03-06T18:04:37.182Z,41.42
2023-03-06T18:07:10.408Z,164.90
2023-03-06T18:09:40.683Z,214.73
2023-03-06T18:12:14.048Z,118.00
2023-03-06T18:14:44.230Z,134.15
2023-03-06T18:17:17.104Z,106.22
2023-03-06T18:19:47.625Z,45.53
2023-03-06T18:22:23.306Z,35.03
2023-03-06T18:24:53.475Z,30.25
2023-03-06T18:27:23.723Z,27.98
2023-03-06T18:29:55.681Z,26.23
2023-03-06T18:32:28.017Z,25.40
2023-03-06T18:34:58.363Z,37.85
2023-03-06T18:37:31.146Z,66.18
2023-03-06T18:40:01.618Z,76.10
2023-03-06T18:42:31.811Z,47.67
2023-03-06T18:45:02.128Z,50.08
2023-03-06T18:47:32.505Z,44.42
2023-03-06T18:50:02.825Z,36.72
2023-03-06T18:52:36.472Z,37.95
2023-03-06T18:55:07.045Z,38.10
2023-03-06T18:57:37.344Z,34.95
2023-03-06T19:00:11.688Z,32.38
2023-03-06T19:02:41.886Z,30.88
2023-03-06T19:05:12.621Z,49.30
2023-03-06T19:07:45.601Z,40.15
2023-03-06T19:10:16.015Z,96.65
2023-03-06T19:12:46.176Z,66.25
2023-03-06T19:15:16.731Z,30.85
2023-03-06T19:17:49.764Z,24.38
2023-03-06T19:20:20.802Z,26.83
2023-03-06T19:22:54.105Z,23.48
2023-03-06T19:25:24.691Z,22.58
2023-03-06T19:27:57.921Z,23.60
2023-03-06T19:30:28.285Z,29.50
2023-03-06T19:32:59.419Z,29.52
2023-03-06T19:35:31.615Z,26.38
2023-03-06T19:38:04.476Z,28.85
2023-03-06T19:40:35.387Z,27.48
2023-03-06T19:43:05.569Z,29.55
2023-03-06T19:45:36.901Z,26.65
2023-03-06T19:48:12.509Z,27.95
2023-03-06T19:50:42.762Z,28.85
2023-03-06T19:53:16.081Z,33.80
2023-03-06T19:55:46.569Z,31.27
2023-03-06T19:58:16.759Z,37.40
2023-03-06T20:00:47.108Z,45.33
2023-03-06T20:03:18.138Z,38.70
2023-03-06T20:05:51.414Z,32.40
2023-03-06T20:08:24.224Z,34.92
2023-03-06T20:10:54.470Z,27.27
2023-03-06T20:13:24.887Z,24.27
2023-03-06T20:15:55.348Z,22.80
2023-03-06T20:18:25.913Z,27.98
2023-03-06T20:21:02.186Z,23.98
2023-03-06T20:23:35.534Z,23.25
2023-03-06T20:26:07.340Z,20.70
2023-03-06T20:28:39.244Z,30.60
2023-03-06T20:31:11.311Z,26.20
2023-03-06T20:33:41.993Z,21.17
2023-03-06T20:36:18.811Z,18.90
2023-03-06T20:38:51.679Z,23.92
2023-03-06T20:41:23.640Z,17.05
2023-03-06T20:43:54.516Z,23.33
2023-03-06T20:46:26.313Z,21.17
2023-03-06T20:48:58.329Z,19.27
2023-03-06T20:51:31.798Z,24.58
2023-03-06T20:54:05.179Z,25.77
2023-03-06T20:56:40.607Z,20.00
2023-03-06T20:59:15.099Z,19.40
2023-03-06T21:01:51.161Z,19.85
2023-03-06T21:04:21.339Z,20.98
2023-03-06T21:06:51.524Z,22.58
2023-03-06T21:09:24.527Z,17.63
2023-03-06T21:11:54.748Z,14.05
2023-03-06T21:14:24.857Z,19.88
2023-03-06T21:16:55.107Z,15.52
2023-03-06T21:19:25.395Z,20.30
2023-03-06T21:21:57.938Z,17.52
2023-03-06T21:24:30.728Z,20.30
2023-03-06T21:27:00.984Z,16.98
2023-03-06T21:29:31.192Z,17.63
2023-03-06T21:32:02.678Z,17.98
2023-03-06T21:34:32.879Z,19.75
2023-03-06T21:37:03.805Z,17.25
2023-03-06T21:39:36.697Z,18.92
2023-03-06T21:42:07.178Z,17.63
2023-03-06T21:44:37.358Z,17.48
2023-03-06T21:47:07.954Z,15.10
2023-03-06T21:49:38.259Z,17.77
2023-03-06T21:52:08.563Z,20.42
2023-03-06T21:54:41.542Z,18.65
2023-03-06T21:57:11.880Z,18.60
2023-03-06T21:59:42.231Z,15.80
2023-03-06T22:02:14.122Z,14.35
2023-03-06T22:04:44.758Z,17.05
2023-03-06T22:07:14.985Z,13.43
2023-03-06T22:09:47.831Z,13.60
2023-03-06T22:12:17.985Z,14.20
2023-03-06T22:14:49.145Z,13.65
2023-03-06T22:17:19.299Z,19.65
2023-03-06T22:19:51.390Z,19.13
2023-03-06T22:22:21.765Z,15.88
2023-03-06T22:24:54.481Z,17.77
2023-03-06T22:27:27.526Z,16.40
2023-03-06T22:29:57.785Z,15.35
2023-03-06T22:32:28.163Z,16.70
2023-03-06T22:34:58.332Z,18.15
2023-03-06T22:37:28.418Z,17.13
2023-03-06T22:40:01.303Z,13.60
2023-03-06T22:42:31.662Z,16.23
2023-03-06T22:45:02.060Z,15.93
2023-03-06T22:47:33.107Z,14.05
2023-03-06T22:50:03.364Z,17.23
2023-03-06T22:52:33.562Z,15.60
2023-03-06T22:55:06.826Z,16.52
2023-03-06T22:57:36.915Z,16.40
2023-03-06T23:00:11.157Z,12.20
2023-03-06T23:02:41.273Z,12.82
2023-03-06T23:05:12.046Z,14.23
2023-03-06T23:07:44.683Z,17.30
2023-03-06T23:10:17.743Z,18.58
2023-03-06T23:12:47.867Z,11.85
2023-03-06T23:15:18.204Z,12.02
2023-03-06T23:17:48.392Z,11.48
2023-03-06T23:20:18.667Z,14.73
2023-03-06T23:22:48.921Z,14.68
2023-03-06T23:25:21.876Z,17.10
2023-03-06T23:27:52.199Z,14.10
2023-03-06T23:30:22.609Z,12.52
2023-03-06T23:32:52.732Z,16.02
2023-03-06T23:35:22.959Z,16.52
2023-03-06T23:37:53.132Z,16.80
2023-03-06T23:40:25.870Z,13.50
2023-03-06T23:42:56.184Z,14.88
2023-03-06T23:45:26.379Z,18.77
2023-03-06T23:47:56.513Z,15.07
2023-03-06T23:50:27.161Z,16.13
2023-03-06T23:52:58.044Z,17.90
2023-03-06T23:55:30.825Z,15.10
2023-03-06T23:58:00.980Z,14.10
